Time;durP1;ratioP1;P1;durP2;ratioP2;P2;SDS_P1;SDS_P2;PMS_P1;PMS_P2;Temp;Humidity;BMP_temperature;BMP_pressure;BME280_temperature;BME280_humidity;BME280_pressure;Samples;Min_cycle;Max_cycle;Signal;HPM_P1;HPM_P2
2021/06/25 00:01:45;;;;;;;;;;;;;;;22.76;65.01;97033.44;1664285;86;20140;-79
2021/06/25 00:04:11;;;;;;;;;;;;;;;22.75;65.92;97030.44;1653703;86;20168;-81
2021/06/25 00:06:38;;;;;;;;;;;;;;;22.75;64.49;97032.62;1637301;88;20177;-81
2021/06/25 00:09:04;;;;;;;;;;;;;;;22.74;64.38;97027.44;1638170;86;20164;-83
2021/06/25 00:11:30;;;;;;;;;;;;;;;22.72;64.89;97026.30;1660801;86;20435;-82
2021/06/25 00:13:57;;;;;;;;;;;;;;;22.72;63.64;97028.17;1664464;86;20158;-81
2021/06/25 00:16:23;;;;;;;;;;;;;;;22.69;64.33;97031.26;1664585;86;20749;-82
2021/06/25 00:18:50;;;;;;;;;;;;;;;22.66;65.14;97031.16;1664231;86;20162;-81
2021/06/25 00:21:16;;;;;;;;;;;;;;;22.63;64.43;97030.20;1656476;86;20131;-81
2021/06/25 00:23:42;;;;;;;;;;;;;;;22.59;64.35;97031.13;1657891;86;20422;-83
2021/06/25 00:26:09;;;;;;;;;;;;;;;22.55;64.71;97045.97;1675087;85;20129;-81
2021/06/25 00:28:35;;;;;;;;;;;;;;;22.51;64.36;97041.20;1660002;84;20183;-82
2021/06/25 00:31:01;;;;;;;;;;;;;;;22.48;63.39;97053.70;1658281;86;20183;-80
2021/06/25 00:33:27;;;;;;;;;;;;;;;22.48;64.70;97057.73;1647733;87;20164;-81
2021/06/25 00:35:54;;;;;;;;;;;;;;;22.47;65.77;97051.52;1670559;86;20482;-81
2021/06/25 00:38:20;;;;;;;;;;;;;;;22.45;65.03;97049.05;1674286;85;20132;-80
2021/06/25 00:40:46;;;;;;;;;;;;;;;22.43;63.99;97052.44;1674768;85;20177;-82
2021/06/25 00:43:13;;;;;;;;;;;;;;;22.44;64.18;97056.78;1675085;85;20157;-78
2021/06/25 00:45:39;;;;;;;;;;;;;;;22.43;65.12;97053.78;1673019;86;20141;-80
2021/06/25 00:48:06;;;;;;;;;;;;;;;22.45;64.92;97051.73;1674932;85;20430;-82
2021/06/25 00:50:35;;;;;;;;;;;;;;;22.43;65.01;97049.75;1673043;85;20137;-80
2021/06/25 00:53:02;;;;;;;;;;;;;;;22.42;65.20;97046.75;1654139;86;20473;-78
2021/06/25 00:55:30;;;;;;;;;;;;;;;22.44;64.94;97043.88;1674879;85;20437;-81
2021/06/25 00:57:56;;;;;;;;;;;;;;;22.46;65.10;97041.30;1674643;85;20161;-83
2021/06/25 01:00:22;;;;;;;;;;;;;;;22.44;65.81;97040.67;1674131;86;20220;-80
2021/06/25 01:02:49;;;;;;;;;;;;;;;22.44;66.09;97036.64;1674633;86;20299;-82
2021/06/25 01:05:16;;;;;;;;;;;;;;;22.44;65.07;97037.17;1674989;85;20141;-80
2021/06/25 01:07:44;;;;;;;;;;;;;;;22.45;65.12;97030.78;1674808;86;20185;-82
2021/06/25 01:10:11;;;;;;;;;;;;;;;22.47;65.30;97036.75;1654762;86;20187;-80
2021/06/25 01:12:42;;;;;;;;;;;;;;;22.49;65.14;97041.94;1648357;86;20132;-82
2021/06/25 01:15:10;;;;;;;;;;;;;;;22.49;65.63;97045.97;1647725;86;20176;-82
2021/06/25 01:17:39;;;;;;;;;;;;;;;22.49;66.35;97040.59;1657326;86;20161;-81
2021/06/25 01:20:10;;;;;;;;;;;;;;;22.46;66.67;97042.65;1656654;86;20164;-81
2021/06/25 01:22:42;;;;;;;;;;;;;;;22.44;66.81;97037.17;1639013;86;20485;-81
2021/06/25 01:25:23;;;;;;;;;;;;;;;22.42;66.33;97034.66;1654563;86;20145;-80
2021/06/25 01:27:51;;;;;;;;;;;;;;;22.40;66.52;97035.41;1664120;86;20426;-79
2021/06/25 01:30:23;;;;;;;;;;;;;;;22.37;66.04;97039.79;1661838;86;20137;-78
2021/06/25 01:32:50;;;;;;;;;;;;;;;22.33;65.96;97027.78;1663130;86;20133;-77
2021/06/25 01:35:17;;;;;;;;;;;;;;;22.30;65.78;97027.67;1664211;86;20411;-79
2021/06/25 01:37:44;;;;;;;;;;;;;;;22.24;67.06;97024.45;1664222;86;20133;-78
2021/06/25 01:40:12;;;;;;;;;;;;;;;22.22;66.00;97017.63;1663454;86;20128;-77
2021/06/25 01:42:41;;;;;;;;;;;;;;;22.18;65.87;97015.02;1663398;86;20129;-79
2021/06/25 01:45:13;;;;;;;;;;;;;;;22.17;66.69;97014.20;1664153;86;20175;-78
2021/06/25 01:47:40;;;;;;;;;;;;;;;22.18;66.86;97016.36;1663893;86;20442;-78
2021/06/25 01:50:10;;;;;;;;;;;;;;;22.17;66.60;97027.63;1662627;86;20129;-79
2021/06/25 01:52:36;;;;;;;;;;;;;;;22.15;66.08;97033.70;1638054;86;20124;-78
2021/06/25 01:55:04;;;;;;;;;;;;;;;22.15;66.34;97045.25;1637334;86;20505;-79
2021/06/25 01:57:30;;;;;;;;;;;;;;;22.14;65.64;97044.94;1637351;88;20172;-78
2021/06/25 01:59:57;;;;;;;;;;;;;;;22.09;64.85;97042.53;1637340;88;20180;-78
2021/06/25 02:02:23;;;;;;;;;;;;;;;22.06;66.61;97037.58;1663743;86;20427;-79
2021/06/25 02:04:49;;;;;;;;;;;;;;;22.04;65.15;97031.05;1664313;86;20150;-79
2021/06/25 02:07:15;;;;;;;;;;;;;;;22.02;64.93;97034.46;1664145;86;20137;-78
2021/06/25 02:09:41;;;;;;;;;;;;;;;21.98;65.90;97034.53;1663926;86;20117;-79
2021/06/25 02:12:10;;;;;;;;;;;;;;;21.94;65.51;97031.94;1647612;86;20254;-77
2021/06/25 02:14:36;;;;;;;;;;;;;;;21.90;66.19;97032.00;1637605;86;20176;-77
2021/06/25 02:17:02;;;;;;;;;;;;;;;21.85;66.65;97040.64;1637956;86;20549;-79
2021/06/25 02:19:28;;;;;;;;;;;;;;;21.78;67.06;97035.75;1637266;88;20500;-79
2021/06/25 02:21:55;;;;;;;;;;;;;;;21.70;63.56;97030.02;1646500;85;20186;-80
2021/06/25 02:24:21;;;;;;;;;;;;;;;21.60;66.54;97033.05;1654446;85;20175;-81
2021/06/25 02:26:48;;;;;;;;;;;;;;;21.51;66.26;97023.47;1654802;85;20143;-81
2021/06/25 02:29:14;;;;;;;;;;;;;;;21.46;66.48;97016.01;1681996;85;20161;-85
2021/06/25 02:31:40;;;;;;;;;;;;;;;21.42;66.72;97003.19;1681699;85;20173;-81
2021/06/25 02:34:06;;;;;;;;;;;;;;;21.36;64.42;97000.24;1681917;85;20172;-81
2021/06/25 02:36:33;;;;;;;;;;;;;;;21.32;66.27;96997.65;1681157;85;20124;-82
2021/06/25 02:38:59;;;;;;;;;;;;;;;21.30;66.38;97001.52;1681930;85;20457;-85
2021/06/25 02:41:25;;;;;;;;;;;;;;;21.27;66.86;97000.06;1681116;85;20140;-84
2021/06/25 02:43:52;;;;;;;;;;;;;;;21.27;67.20;96999.25;1682027;85;20132;-83
2021/06/25 02:46:18;;;;;;;;;;;;;;;;;;1660711;85;20151;-84
2021/06/25 02:48:44;;;;;;;;;;;;;;;21.22;66.66;96995.29;1654535;86;20127;-84
2021/06/25 02:51:10;;;;;;;;;;;;;;;21.20;67.21;96989.81;1654628;87;20151;-82
2021/06/25 02:53:36;;;;;;;;;;;;;;;21.14;67.49;96992.75;1655279;85;20183;-82
2021/06/25 02:56:03;;;;;;;;;;;;;;;21.19;66.59;96998.37;1654572;85;20147;-81
2021/06/25 02:58:29;;;;;;;;;;;;;;;21.19;67.98;97005.56;1654621;87;20151;-81
2021/06/25 03:00:56;;;;;;;;;;;;;;;21.16;68.12;97006.79;1654637;85;20131;-82
2021/06/25 03:03:23;;;;;;;;;;;;;;;21.15;68.39;96998.43;1655476;85;20148;-81
2021/06/25 03:05:50;;;;;;;;;;;;;;;21.13;65.14;97007.16;1657864;85;20227;-81
2021/06/25 03:08:17;;;;;;;;;;;;;;;21.12;66.33;97005.50;1681834;85;20168;-82
2021/06/25 03:10:46;;;;;;;;;;;;;;;21.11;67.62;97002.53;1681647;85;20502;-81
2021/06/25 03:13:14;;;;;;;;;;;;;;;21.11;68.25;96996.33;1681903;85;20188;-82
2021/06/25 03:15:40;;;;;;;;;;;;;;;21.10;66.55;96991.49;1654975;85;20128;-81
2021/06/25 03:18:06;;;;;;;;;;;;;;;21.13;67.02;96992.95;1640192;88;20131;-79
2021/06/25 03:20:32;;;;;;;;;;;;;;;21.17;67.59;96982.99;1640259;87;20200;-81
2021/06/25 03:22:58;;;;;;;;;;;;;;;21.22;66.00;96975.19;1640672;86;20172;-79
2021/06/25 03:25:25;;;;;;;;;;;;;;;21.29;67.01;96976.59;1674513;85;20147;-82
2021/06/25 03:27:51;;;;;;;;;;;;;;;21.35;66.85;96966.41;1670935;85;20142;-81
2021/06/25 03:30:18;;;;;;;;;;;;;;;21.44;67.12;96964.92;1665193;86;20437;-81
2021/06/25 03:32:44;;;;;;;;;;;;;;;21.50;62.89;96966.31;1653308;86;20181;-81
2021/06/25 03:35:11;;;;;;;;;;;;;;;21.57;64.84;96965.55;1640174;87;20184;-81
2021/06/25 03:37:37;;;;;;;;;;;;;;;21.65;65.79;96966.77;1640227;88;20140;-81
2021/06/25 03:40:06;;;;;;;;;;;;;;;21.78;66.86;96960.12;1641984;86;20139;-79
2021/06/25 03:42:32;;;;;;;;;;;;;;;21.97;67.28;96958.58;1640777;86;20484;-83
2021/06/25 03:44:58;;;;;;;;;;;;;;;22.19;65.81;96964.34;1640276;87;20254;-80
2021/06/25 03:47:24;;;;;;;;;;;;;;;22.40;65.84;96965.59;1665983;86;20152;-81
2021/06/25 03:49:51;;;;;;;;;;;;;;;22.63;65.78;96957.68;1661006;85;20135;-79
2021/06/25 03:52:17;;;;;;;;;;;;;;;22.88;65.71;96963.80;1641036;86;20169;-80
2021/06/25 03:54:43;;;;;;;;;;;;;;;23.19;64.94;96962.41;1640237;86;20432;-81
2021/06/25 03:57:10;;;;;;;;;;;;;;;23.57;64.09;96960.95;1640080;87;20184;-82
2021/06/25 03:59:37;;;;;;;;;;;;;;;23.98;62.53;96963.86;1645483;86;20181;-79
2021/06/25 04:02:08;;;;;;;;;;;;;;;24.34;61.81;96959.78;1641823;86;20231;-79
2021/06/25 04:04:32;;;;;;;;;;;;;;;24.73;60.78;96955.78;1639659;88;20492;-81
2021/06/25 04:06:58;;;;;;;;;;;;;;;25.12;59.55;96957.86;1657577;86;20173;-81
2021/06/25 04:09:25;;;;;;;;;;;;;;;25.49;59.98;96958.52;1662264;86;20139;-79
2021/06/25 04:11:52;;;;;;;;;;;;;;;25.83;59.03;96959.84;1640170;88;20430;-82
2021/06/25 04:14:18;;;;;;;;;;;;;;;26.22;58.23;96958.80;1640206;87;20128;-81
2021/06/25 04:16:44;;;;;;;;;;;;;;;26.64;56.78;96965.61;1641091;86;20168;-78
2021/06/25 04:19:11;;;;;;;;;;;;;;;27.00;55.49;96962.51;1654209;86;20173;-78
2021/06/25 04:21:37;;;;;;;;;;;;;;;27.28;54.16;96960.48;1640352;88;20230;-81
2021/06/25 04:24:04;;;;;;;;;;;;;;;27.66;52.37;96963.83;1640189;86;20429;-81
2021/06/25 04:26:31;;;;;;;;;;;;;;;28.00;51.02;96964.01;1661705;86;20141;-81
2021/06/25 04:28:57;;;;;;;;;;;;;;;28.46;51.21;96966.03;1667296;86;20458;-82
2021/06/25 04:31:23;;;;;;;;;;;;;;;28.84;51.97;96965.95;1657529;86;20189;-79
2021/06/25 04:33:50;;;;;;;;;;;;;;;29.22;49.58;96967.13;1667148;86;20153;-81
2021/06/25 04:36:16;;;;;;;;;;;;;;;29.66;47.54;96961.56;1666595;86;20137;-81
2021/06/25 04:38:42;;;;;;;;;;;;;;;30.04;46.26;96951.79;1667249;86;20117;-82
2021/06/25 04:41:08;;;;;;;;;;;;;;;30.48;45.01;96955.87;1645897;86;20183;-81
2021/06/25 04:43:35;;;;;;;;;;;;;;;30.87;44.21;96950.84;1640494;86;20187;-82
2021/06/25 04:46:01;;;;;;;;;;;;;;;31.21;44.68;96948.43;1640992;86;20192;-81
2021/06/25 04:48:27;;;;;;;;;;;;;;;31.55;43.36;96953.04;1640318;86;20490;-81
2021/06/25 04:50:54;;;;;;;;;;;;;;;31.85;43.61;96951.59;1640654;86;20171;-82
2021/06/25 04:53:20;;;;;;;;;;;;;;;32.14;44.96;96958.55;1640312;88;20180;-83
2021/06/25 04:55:47;;;;;;;;;;;;;;;32.32;42.73;96955.38;1640129;88;20196;-82
2021/06/25 04:58:16;;;;;;;;;;;;;;;32.67;39.47;96959.81;1650892;86;20169;-81
2021/06/25 05:00:45;;;;;;;;;;;;;;;33.10;40.56;96963.72;1666874;86;20471;-82
2021/06/25 05:03:11;;;;;;;;;;;;;;;33.50;38.21;96959.37;1654802;86;20461;-80
2021/06/25 05:05:41;;;;;;;;;;;;;;;33.87;36.83;96955.50;1655093;86;20166;-83
2021/06/25 05:08:08;;;;;;;;;;;;;;;34.18;36.04;96948.56;1640479;88;20148;-81
2021/06/25 05:10:35;;;;;;;;;;;;;;;34.53;36.25;96957.71;1651617;86;20132;-80
2021/06/25 05:13:01;;;;;;;;;;;;;;;34.80;35.31;96959.19;1640418;86;20147;-81
2021/06/25 05:15:28;;;;;;;;;;;;;;;35.17;34.75;96953.73;1640201;87;20140;-82
2021/06/25 05:17:54;;;;;;;;;;;;;;;35.27;36.28;96950.65;1649981;86;20136;-81
2021/06/25 05:20:20;;;;;;;;;;;;;;;35.41;34.77;96952.20;1666847;86;20418;-81
2021/06/25 05:22:47;;;;;;;;;;;;;;;35.35;36.50;96954.13;1663884;85;20175;-82
2021/06/25 05:25:13;;;;;;;;;;;;;;;35.07;34.77;96953.02;1642303;86;20132;-76
2021/06/25 05:27:40;;;;;;;;;;;;;;;34.98;38.00;96956.91;1657798;86;20125;-81
2021/06/25 05:30:07;;;;;;;;;;;;;;;34.95;37.99;96956.09;1663081;86;20185;-83
2021/06/25 05:32:34;;;;;;;;;;;;;;;34.90;38.06;96964.33;1667223;86;20160;-82
2021/06/25 05:35:01;;;;;;;;;;;;;;;34.66;35.67;96960.94;1667218;86;20122;-82
2021/06/25 05:37:28;;;;;;;;;;;;;;;34.02;37.31;96962.00;1665149;86;20121;-80
2021/06/25 05:39:54;;;;;;;;;;;;;;;33.22;38.38;96966.20;1664010;86;20259;-80
2021/06/25 05:42:21;;;;;;;;;;;;;;;33.21;39.11;96968.66;1665299;85;20134;-81
2021/06/25 05:44:47;;;;;;;;;;;;;;;32.97;39.33;96964.55;1664066;86;20537;-78
2021/06/25 05:47:13;;;;;;;;;;;;;;;32.78;39.67;96964.77;1665093;86;20175;-79
2021/06/25 05:49:40;;;;;;;;;;;;;;;32.61;40.51;96965.83;1666912;86;20430;-80
2021/06/25 05:52:06;;;;;;;;;;;;;;;32.40;40.65;96963.56;1664281;86;20129;-80
2021/06/25 05:54:33;;;;;;;;;;;;;;;32.39;41.18;96965.48;1661777;86;20449;-80
2021/06/25 05:56:59;;;;;;;;;;;;;;;32.32;41.37;96973.63;1651298;86;20185;-79
2021/06/25 05:59:25;;;;;;;;;;;;;;;32.53;40.84;96976.71;1647937;86;20177;-79
2021/06/25 06:01:54;;;;;;;;;;;;;;;32.79;41.24;96988.27;1663847;86;20418;-80
2021/06/25 06:04:21;;;;;;;;;;;;;;;32.83;40.33;96997.53;1667257;86;20423;-80
2021/06/25 06:06:47;;;;;;;;;;;;;;;32.63;41.07;96990.91;1664426;85;20134;-76
2021/06/25 06:09:13;;;;;;;;;;;;;;;32.63;40.42;96997.73;1652163;86;20158;-79
2021/06/25 06:11:40;;;;;;;;;;;;;;;32.66;41.00;97004.58;1647457;86;20162;-81
2021/06/25 06:14:06;;;;;;;;;;;;;;;32.77;40.45;97013.59;1641832;86;20149;-79
2021/06/25 06:16:33;;;;;;;;;;;;;;;32.71;40.81;97013.56;1658349;86;20113;-78
2021/06/25 06:19:00;;;;;;;;;;;;;;;32.46;41.11;97012.13;1667090;86;20134;-79
2021/06/25 06:21:26;;;;;;;;;;;;;;;32.25;41.87;97006.58;1666903;86;20106;-81
2021/06/25 06:34:36;;;;;;;;;;;;;;;34.34;37.66;97005.36;1652567;87;20142;-77
2021/06/25 06:37:02;;;;;;;;;;;;;;;34.60;38.93;97006.66;1652474;87;20145;-77
2021/06/25 06:39:29;;;;;;;;;;;;;;;34.79;37.09;97007.38;1649342;87;20483;-75
2021/06/25 06:41:56;;;;;;;;;;;;;;;34.62;37.69;97006.37;1652565;87;20137;-81
2021/06/25 06:44:24;;;;;;;;;;;;;;;34.68;37.84;97007.43;1632352;87;20142;-80
2021/06/25 06:46:51;;;;;;;;;;;;;;;34.16;38.74;97015.01;1648646;87;20144;-79
2021/06/25 06:49:17;;;;;;;;;;;;;;;34.22;38.52;97019.35;1647474;87;20391;-80
2021/06/25 06:51:43;;;;;;;;;;;;;;;34.39;38.11;97012.75;1647410;87;20137;-79
2021/06/25 06:54:10;;;;;;;;;;;;;;;34.29;38.87;97008.69;1646836;87;20160;-76
2021/06/25 06:56:36;;;;;;;;;;;;;;;33.98;38.73;97006.04;1651501;86;20164;-77
2021/06/25 06:59:02;;;;;;;;;;;;;;;33.44;39.94;96999.52;1652329;86;20167;-80
2021/06/25 07:01:30;;;;;;;;;;;;;;;33.66;39.82;96997.59;1645987;86;20182;-81
2021/06/25 07:03:56;;;;;;;;;;;;;;;33.58;40.07;96998.42;1628198;87;20133;-80
2021/06/25 07:06:23;;;;;;;;;;;;;;;33.76;39.61;96997.04;1633340;87;20178;-78
2021/06/25 07:08:49;;;;;;;;;;;;;;;33.83;39.98;96994.56;1637797;87;20131;-78
2021/06/25 07:11:15;;;;;;;;;;;;;;;34.20;39.64;96992.02;1652151;87;20150;-77
2021/06/25 07:13:42;;;;;;;;;;;;;;;34.04;39.89;96995.34;1652398;87;20459;-80
2021/06/25 07:16:11;;;;;;;;;;;;;;;34.13;39.85;96987.41;1651810;86;20439;-78
2021/06/25 07:18:36;;;;;;;;;;;;;;;34.22;39.78;96976.16;1635824;87;20400;-80
2021/06/25 07:21:03;;;;;;;;;;;;;;;34.51;39.13;96967.31;1637841;87;20122;-77
2021/06/25 07:23:29;;;;;;;;;;;;;;;34.17;39.70;96967.43;1650741;85;20102;-78
2021/06/25 07:25:55;;;;;;;;;;;;;;;33.70;40.69;96967.27;1643968;87;20409;-79
2021/06/25 07:28:21;;;;;;;;;;;;;;;33.46;41.70;96963.73;1648640;87;20438;-79
2021/06/25 07:30:47;;;;;;;;;;;;;;;33.36;42.21;96975.50;1648907;86;20367;-80
2021/06/25 07:33:14;;;;;;;;;;;;;;;32.63;43.63;96963.62;1655752;87;20173;-80
2021/06/25 07:35:40;;;;;;;;;;;;;;;32.56;43.95;96961.70;1659833;86;20431;-79
2021/06/25 07:38:06;;;;;;;;;;;;;;;32.96;43.44;96962.91;1658394;85;20121;-78
2021/06/25 07:40:32;;;;;;;;;;;;;;;32.94;43.60;96965.08;1660016;85;20158;-81
2021/06/25 07:42:58;;;;;;;;;;;;;;;32.56;44.59;96958.98;1656151;87;20166;-80
2021/06/25 07:45:24;;;;;;;;;;;;;;;32.45;44.46;96962.77;1656052;86;20114;-79
2021/06/25 07:47:50;;;;;;;;;;;;;;;32.48;44.56;96956.78;1658028;85;20129;-78
2021/06/25 07:50:18;;;;;;;;;;;;;;;32.52;45.11;96956.53;1655828;85;20447;-78
2021/06/25 07:52:44;;;;;;;;;;;;;;;33.07;44.51;96955.53;1660095;86;20145;-80
2021/06/25 07:55:12;;;;;;;;;;;;;;;33.54;43.26;96947.34;1654731;87;20138;-78
2021/06/25 07:57:39;;;;;;;;;;;;;;;33.68;42.79;96934.77;1659993;85;20118;-80
2021/06/25 08:00:07;;;;;;;;;;;;;;;33.59;43.05;96926.30;1656395;85;20158;-78
2021/06/25 08:02:35;;;;;;;;;;;;;;;33.85;42.85;96921.32;1652982;87;20442;-79
2021/06/25 08:05:01;;;;;;;;;;;;;;;34.13;42.36;96917.69;1650950;85;20141;-81
2021/06/25 08:07:27;;;;;;;;;;;;;;;34.38;41.73;96912.64;1660240;85;20134;-81
2021/06/25 08:09:55;;;;;;;;;;;;;;;34.57;41.41;96915.55;1660566;85;20138;-80
2021/06/25 08:12:22;;;;;;;;;;;;;;;34.62;41.79;96906.50;1659102;87;20183;-80
2021/06/25 08:14:48;;;;;;;;;;;;;;;34.98;41.24;96919.94;1662306;85;20204;-83
2021/06/25 08:17:14;;;;;;;;;;;;;;;35.00;40.60;96912.27;1658133;86;20146;-81
2021/06/25 08:19:41;;;;;;;;;;;;;;;34.70;41.12;96912.73;1660062;85;20144;-82
2021/06/25 08:22:08;;;;;;;;;;;;;;;34.68;41.38;96917.66;1648083;85;20146;-81
2021/06/25 08:24:35;;;;;;;;;;;;;;;34.31;41.93;96906.64;1666939;85;20423;-81
2021/06/25 08:27:02;;;;;;;;;;;;;;;34.39;41.95;96911.55;1653783;87;20145;-81
2021/06/25 08:29:29;;;;;;;;;;;;;;;34.51;41.90;96912.03;1642431;85;20400;-78
2021/06/25 08:31:55;;;;;;;;;;;;;;;34.59;41.85;96902.95;1654475;85;20195;-79
2021/06/25 08:34:21;;;;;;;;;;;;;;;35.05;41.04;96910.04;1655924;87;20146;-79
2021/06/25 08:36:47;;;;;;;;;;;;;;;35.25;40.34;96915.88;1656865;85;20419;-81
2021/06/25 08:39:14;;;;;;;;;;;;;;;35.00;40.64;96917.17;1657330;85;20137;-81
2021/06/25 08:41:41;;;;;;;;;;;;;;;34.95;40.73;96916.39;1666822;85;20150;-79
2021/06/25 08:44:08;;;;;;;;;;;;;;;34.80;40.85;96914.02;1662161;85;20137;-78
2021/06/25 08:46:34;;;;;;;;;;;;;;;34.15;41.65;96912.77;1669873;85;20137;-80
2021/06/25 08:49:04;;;;;;;;;;;;;;;33.96;42.04;96920.22;1656651;85;20130;-78
2021/06/25 08:51:33;;;;;;;;;;;;;;;33.76;42.33;96910.97;1682314;85;20151;-77
2021/06/25 08:54:00;;;;;;;;;;;;;;;33.78;42.42;96910.11;1664077;84;20142;-79
2021/06/25 08:56:31;;;;;;;;;;;;;;;33.79;42.36;96906.84;1658235;85;20221;-79
2021/06/25 08:58:57;;;;;;;;;;;;;;;33.92;42.25;96910.93;1644730;86;20137;-79
2021/06/25 09:01:24;;;;;;;;;;;;;;;34.00;42.60;96913.64;1644899;87;20439;-80
2021/06/25 09:03:52;;;;;;;;;;;;;;;34.04;42.69;96910.07;1642409;87;20481;-80
2021/06/25 09:06:18;;;;;;;;;;;;;;;34.16;42.56;96913.00;1633620;87;20169;-80
2021/06/25 09:08:44;;;;;;;;;;;;;;;34.45;41.95;96910.97;1629898;88;20153;-79
2021/06/25 09:11:22;;;;;;;;;;;;;;;34.41;41.83;96906.62;1633588;87;20192;-80
2021/06/25 09:13:57;;;;;;;;;;;;;;;34.23;42.06;96894.40;1629837;87;20132;-78
2021/06/25 09:16:29;;;;;;;;;;;;;;;34.30;42.18;96900.37;1657376;85;20146;-77
2021/06/25 09:19:01;;;;;;;;;;;;;;;34.48;41.88;96899.47;1656572;87;20126;-80
2021/06/25 09:21:33;;;;;;;;;;;;;;;34.43;41.81;96901.69;1656647;86;20166;-79
2021/06/25 09:24:18;;;;;;;;;;;;;;;34.11;42.28;96894.70;1661588;85;20145;-76
2021/06/25 09:26:45;;;;;;;;;;;;;;;33.84;42.85;96890.42;1648847;86;20153;-80
2021/06/25 09:29:17;;;;;;;;;;;;;;;33.76;42.92;96885.54;1666467;86;20129;-79
2021/06/25 09:31:43;;;;;;;;;;;;;;;33.75;43.06;96885.27;1664498;86;20158;-79
2021/06/25 09:34:11;;;;;;;;;;;;;;;33.68;43.10;96886.95;1665060;86;20141;-79
2021/06/25 09:36:39;;;;;;;;;;;;;;;33.60;43.20;96881.50;1664945;86;20145;-79
2021/06/25 09:39:10;;;;;;;;;;;;;;;33.48;43.30;96881.81;1640073;87;20156;-79
2021/06/25 09:41:42;;;;;;;;;;;;;;;33.40;43.57;96891.10;1640212;86;20168;-79
2021/06/25 09:44:17;;;;;;;;;;;;;;;33.28;43.79;96887.27;1639453;88;20191;-78
2021/06/25 09:46:45;;;;;;;;;;;;;;;33.10;43.64;96877.73;1644294;86;20194;-80
2021/06/25 09:49:13;;;;;;;;;;;;;;;32.64;44.17;96879.91;1642118;86;20443;-79
2021/06/25 09:51:41;;;;;;;;;;;;;;;32.52;44.70;96886.42;1640265;86;20448;-79
2021/06/25 09:54:15;;;;;;;;;;;;;;;32.48;44.32;96903.59;1649414;86;20428;-77
2021/06/25 09:56:51;;;;;;;;;;;;;;;32.40;45.21;96928.12;1666288;85;20432;-78
2021/06/25 09:59:37;;;;;;;;;;;;;;;32.22;45.27;96940.31;1674978;85;20125;-78
2021/06/25 10:02:25;;;;;;;;;;;;;;;32.06;44.88;96936.70;1666754;86;20431;-78
2021/06/25 10:04:54;;;;;;;;;;;;;;;31.83;44.76;96933.31;1659414;85;20169;-77
2021/06/25 10:07:30;;;;;;;;;;;;;;;31.59;45.25;96939.72;1648095;85;20136;-78
2021/06/25 10:10:01;;;;;;;;;;;;;;;31.45;45.45;96959.22;1666445;86;20165;-79
2021/06/25 10:12:27;;;;;;;;;;;;;;;31.27;48.04;96993.13;1666611;85;20125;-77
2021/06/25 10:14:54;;;;;;;;;;;;;;;30.94;52.68;97008.57;1677572;85;20158;-78
2021/06/25 10:17:26;;;;;;;;;;;;;;;30.49;55.58;96992.83;1644449;86;20144;-77
2021/06/25 10:19:54;;;;;;;;;;;;;;;30.00;58.43;96976.48;1640089;86;20144;-77
2021/06/25 10:22:25;;;;;;;;;;;;;;;29.36;62.18;96965.49;1640164;86;20148;-78
2021/06/25 10:24:52;;;;;;;;;;;;;;;28.78;56.55;96954.19;1656484;86;20414;-76
2021/06/25 10:27:20;;;;;;;;;;;;;;;28.18;60.84;96952.75;1628905;87;20148;-78
2021/06/25 10:29:48;;;;;;;;;;;;;;;27.66;59.25;96943.52;1627665;87;20177;-76
2021/06/25 10:32:16;;;;;;;;;;;;;;;27.30;64.25;96931.86;1627762;87;20506;-76
2021/06/25 10:34:44;;;;;;;;;;;;;;;27.22;61.46;96924.91;1646696;85;20127;-79
2021/06/25 10:37:22;;;;;;;;;;;;;;;27.19;61.74;96916.44;1651901;85;20173;-78
2021/06/25 10:39:50;;;;;;;;;;;;;;;27.23;61.90;96900.86;1648838;87;20183;-77
2021/06/25 10:42:16;;;;;;;;;;;;;;;27.36;62.05;96884.10;1652176;87;20241;-78
2021/06/25 10:44:54;;;;;;;;;;;;;;;27.49;63.28;96889.28;1651784;86;20130;-79
2021/06/25 10:47:33;;;;;;;;;;;;;;;27.68;62.31;96887.78;1657372;85;20142;-79
2021/06/25 10:50:05;;;;;;;;;;;;;;;27.87;61.04;96893.88;1640723;87;20156;-77
2021/06/25 10:52:35;;;;;;;;;;;;;;;27.96;61.13;96895.15;1626361;88;20164;-81
2021/06/25 10:55:03;;;;;;;;;;;;;;;28.06;60.07;96909.41;1636337;85;20142;-78
2021/06/25 10:57:31;;;;;;;;;;;;;;;28.04;61.48;96919.66;1643935;86;20131;-76
2021/06/25 10:59:57;;;;;;;;;;;;;;;27.91;61.42;96941.06;1639370;86;20136;-76
2021/06/25 11:02:45;;;;;;;;;;;;;;;27.84;63.42;96952.56;1651299;85;20408;-78
2021/06/25 11:05:32;;;;;;;;;;;;;;;27.81;61.40;96950.32;1668182;85;20189;-83
2021/06/25 11:08:02;;;;;;;;;;;;;;;27.74;61.55;96954.53;1642490;87;20169;-88
2021/06/25 11:10:33;;;;;;;;;;;;;;;27.64;60.54;96965.94;1626269;87;20179;-81
2021/06/25 11:13:21;;;;;;;;;;;;;;;27.56;59.28;96965.75;1632646;85;20136;-76
2021/06/25 11:15:48;;;;;;;;;;;;;;;27.45;57.87;96970.66;1647335;87;20130;-78
2021/06/25 11:18:20;;;;;;;;;;;;;;;27.32;60.40;96968.98;1652410;87;20151;-82
2021/06/25 11:20:58;;;;;;;;;;;;;;;27.16;58.35;96923.66;1652429;86;20166;-77
2021/06/25 11:23:26;;;;;;;;;;;;;;;26.99;56.52;96908.13;1650666;86;20474;-86
2021/06/25 11:25:56;;;;;;;;;;;;;;;26.74;56.07;96898.30;1662311;86;20458;-77
2021/06/25 11:28:40;;;;;;;;;;;;;;;26.49;56.25;96901.98;1661948;86;20197;-84
2021/06/25 11:31:17;;;;;;;;;;;;;;;26.25;55.62;96905.15;1676877;85;20146;-79
2021/06/25 11:33:56;;;;;;;;;;;;;;;25.90;56.63;96907.64;1662959;86;20469;-78
2021/06/25 11:36:51;;;;;;;;;;;;;;;25.65;56.47;96937.70;1666774;86;20439;-81
2021/06/25 11:39:23;;;;;;;;;;;;;;;25.47;58.39;96952.52;1666680;86;20140;-75
2021/06/25 11:42:02;;;;;;;;;;;;;;;25.34;58.22;96961.52;1657137;86;20137;-78
2021/06/25 11:44:44;;;;;;;;;;;;;;;25.17;58.68;96970.68;1657995;86;20127;-78
2021/06/25 11:47:25;;;;;;;;;;;;;;;24.98;59.25;96970.61;1650803;86;20190;-77
2021/06/25 11:52:30;;;;;;;;;;;;;;;24.58;58.09;96958.20;1666964;86;20481;-78
2021/06/25 11:55:03;;;;;;;;;;;;;;;24.44;59.12;96966.06;1683599;85;20432;-78
2021/06/25 11:57:33;;;;;;;;;;;;;;;24.29;59.13;96990.05;1675826;85;20130;-77
2021/06/25 12:00:09;;;;;;;;;;;;;;;24.19;59.84;97007.17;1666896;86;20141;-79
2021/06/25 12:02:45;;;;;;;;;;;;;;;24.14;61.72;97024.49;1663483;86;20133;-80
2021/06/25 12:05:13;;;;;;;;;;;;;;;24.08;61.39;97031.55;1670664;85;20416;-80
2021/06/25 12:07:39;;;;;;;;;;;;;;;23.98;61.23;97020.39;1675197;85;20406;-82
2021/06/25 12:10:06;;;;;;;;;;;;;;;23.85;59.79;97015.30;1649592;86;20136;-83
2021/06/25 12:12:34;;;;;;;;;;;;;;;23.70;60.89;97016.06;1663471;85;20156;-79
2021/06/25 12:15:09;;;;;;;;;;;;;;;23.50;60.67;96993.23;1659108;85;20136;-83
2021/06/25 12:17:44;;;;;;;;;;;;;;;23.31;60.29;96977.40;1656092;86;20179;-84
2021/06/25 12:20:19;;;;;;;;;;;;;;;23.09;62.61;96966.84;1665532;85;20204;-78
2021/06/25 12:22:51;;;;;;;;;;;;;;;22.83;62.84;96964.42;1653329;86;20165;-78
2021/06/25 12:25:33;;;;;;;;;;;;;;;22.50;65.17;96981.84;1664554;86;20129;-78
2021/06/25 12:28:02;;;;;;;;;;;;;;;22.22;63.02;97005.03;1642536;86;20144;-80
2021/06/25 12:30:29;;;;;;;;;;;;;;;21.74;66.36;97017.04;1662081;86;20495;-78
2021/06/25 12:33:05;;;;;;;;;;;;;;;21.46;68.58;97056.23;1649848;86;20141;-77
2021/06/25 12:35:37;;;;;;;;;;;;;;;21.29;63.50;97050.30;1666543;86;20434;-82
2021/06/25 12:38:08;;;;;;;;;;;;;;;21.08;68.42;97069.90;1666614;86;20177;-77
2021/06/25 12:40:40;;;;;;;;;;;;;;;20.95;64.46;97087.16;1665822;86;20466;-79
2021/06/25 12:43:10;;;;;;;;;;;;;;;20.84;67.46;97104.04;1663023;86;20138;-78
2021/06/25 12:45:41;;;;;;;;;;;;;;;20.82;67.80;97116.81;1663490;86;20161;-78
2021/06/25 12:48:11;;;;;;;;;;;;;;;20.87;67.47;97102.34;1657182;86;20128;-78
2021/06/25 12:50:41;;;;;;;;;;;;;;;20.98;68.29;97075.55;1660202;85;20200;-80
2021/06/25 12:53:15;;;;;;;;;;;;;;;21.05;64.41;97028.24;1666749;86;20137;-79
2021/06/25 12:55:44;;;;;;;;;;;;;;;21.09;66.83;97013.95;1665634;86;20150;-78
2021/06/25 12:58:15;;;;;;;;;;;;;;;21.26;66.32;97013.67;1666758;86;20173;-79
2021/06/25 13:00:42;;;;;;;;;;;;;;;21.43;64.85;97000.83;1664911;86;20166;-79
2021/06/25 13:03:09;;;;;;;;;;;;;;;21.63;64.89;97009.03;1665968;86;20161;-79
2021/06/25 13:05:37;;;;;;;;;;;;;;;21.88;65.27;96983.08;1663659;85;20142;-79
2021/06/25 13:08:17;;;;;;;;;;;;;;;22.11;64.88;96960.81;1650412;85;20433;-80